sensor_id;sensor_type;location;lat;lon;timestamp;P1;durP1;ratioP1;P2;durP2;ratioP2
76123;SDS011;65173;48.066;20.976;2023-10-08T00:01:09;3.85;;;1.00;;
76123;SDS011;65173;48.066;20.976;2023-10-08T00:04:17;2.92;;;1.13;;
76123;SDS011;65173;48.066;20.976;2023-10-08T00:07:22;2.55;;;0.98;;
76123;SDS011;65173;48.066;20.976;2023-10-08T00:10:26;1.98;;;1.30;;
76123;SDS011;65173;48.066;20.976;2023-10-08T00:13:29;4.18;;;1.25;;
76123;SDS011;65173;48.066;20.976;2023-10-08T00:16:32;4.80;;;1.37;;
76123;SDS011;65173;48.066;20.976;2023-10-08T00:19:35;3.35;;;1.08;;
76123;SDS011;65173;48.066;20.976;2023-10-08T00:22:40;2.10;;;0.90;;
76123;SDS011;65173;48.066;20.976;2023-10-08T00:25:43;1.80;;;0.80;;
76123;SDS011;65173;48.066;20.976;2023-10-08T00:28:49;2.38;;;1.02;;
76123;SDS011;65173;48.066;20.976;2023-10-08T00:31:54;4.05;;;1.27;;
76123;SDS011;65173;48.066;20.976;2023-10-08T00:34:59;2.60;;;1.25;;
76123;SDS011;65173;48.066;20.976;2023-10-08T00:38:02;4.03;;;1.63;;
76123;SDS011;65173;48.066;20.976;2023-10-08T00:41:05;1.42;;;0.55;;
76123;SDS011;65173;48.066;20.976;2023-10-08T00:44:09;4.28;;;1.10;;
76123;SDS011;65173;48.066;20.976;2023-10-08T00:47:18;2.33;;;0.53;;
76123;SDS011;65173;48.066;20.976;2023-10-08T00:50:23;2.17;;;1.48;;
76123;SDS011;65173;48.066;20.976;2023-10-08T00:53:33;1.38;;;0.55;;
76123;SDS011;65173;48.066;20.976;2023-10-08T00:56:41;6.30;;;1.00;;
76123;SDS011;65173;48.066;20.976;2023-10-08T01:00:06;3.20;;;1.05;;
76123;SDS011;65173;48.066;20.976;2023-10-08T01:03:17;1.77;;;0.88;;
76123;SDS011;65173;48.066;20.976;2023-10-08T01:06:21;4.65;;;1.75;;
76123;SDS011;65173;48.066;20.976;2023-10-08T01:09:25;3.22;;;1.52;;
76123;SDS011;65173;48.066;20.976;2023-10-08T01:12:37;7.75;;;1.33;;
76123;SDS011;65173;48.066;20.976;2023-10-08T01:15:58;1.02;;;0.63;;
76123;SDS011;65173;48.066;20.976;2023-10-08T01:19:00;2.33;;;1.07;;
76123;SDS011;65173;48.066;20.976;2023-10-08T01:22:03;3.55;;;1.60;;
76123;SDS011;65173;48.066;20.976;2023-10-08T01:25:08;1.17;;;0.52;;
76123;SDS011;65173;48.066;20.976;2023-10-08T01:28:13;2.00;;;1.00;;
76123;SDS011;65173;48.066;20.976;2023-10-08T01:31:35;4.63;;;1.25;;
76123;SDS011;65173;48.066;20.976;2023-10-08T01:34:39;6.63;;;1.42;;
76123;SDS011;65173;48.066;20.976;2023-10-08T01:37:41;4.03;;;1.40;;
76123;SDS011;65173;48.066;20.976;2023-10-08T01:40:44;3.58;;;1.02;;
76123;SDS011;65173;48.066;20.976;2023-10-08T01:43:52;6.20;;;1.30;;
76123;SDS011;65173;48.066;20.976;2023-10-08T01:46:55;2.40;;;0.98;;
76123;SDS011;65173;48.066;20.976;2023-10-08T01:50:00;2.10;;;0.57;;
76123;SDS011;65173;48.066;20.976;2023-10-08T01:53:07;3.75;;;1.27;;
76123;SDS011;65173;48.066;20.976;2023-10-08T01:56:12;4.93;;;1.00;;
76123;SDS011;65173;48.066;20.976;2023-10-08T01:59:15;3.53;;;1.00;;
76123;SDS011;65173;48.066;20.976;2023-10-08T02:02:18;5.55;;;0.95;;
76123;SDS011;65173;48.066;20.976;2023-10-08T02:05:20;4.93;;;1.08;;
76123;SDS011;65173;48.066;20.976;2023-10-08T02:08:23;2.53;;;1.00;;
76123;SDS011;65173;48.066;20.976;2023-10-08T02:11:26;2.35;;;1.00;;
76123;SDS011;65173;48.066;20.976;2023-10-08T02:14:29;3.08;;;1.13;;
76123;SDS011;65173;48.066;20.976;2023-10-08T02:17:34;3.42;;;1.48;;
76123;SDS011;65173;48.066;20.976;2023-10-08T02:20:37;2.53;;;0.90;;
76123;SDS011;65173;48.066;20.976;2023-10-08T02:23:42;3.83;;;0.80;;
76123;SDS011;65173;48.066;20.976;2023-10-08T02:26:45;1.88;;;0.63;;
76123;SDS011;65173;48.066;20.976;2023-10-08T02:29:48;2.67;;;1.00;;
76123;SDS011;65173;48.066;20.976;2023-10-08T02:32:51;1.98;;;0.82;;
76123;SDS011;65173;48.066;20.976;2023-10-08T02:35:54;4.07;;;1.67;;
76123;SDS011;65173;48.066;20.976;2023-10-08T02:38:57;1.20;;;0.80;;
76123;SDS011;65173;48.066;20.976;2023-10-08T02:41:59;4.32;;;1.27;;
76123;SDS011;65173;48.066;20.976;2023-10-08T02:45:02;2.58;;;0.98;;
76123;SDS011;65173;48.066;20.976;2023-10-08T02:48:06;4.55;;;1.63;;
76123;SDS011;65173;48.066;20.976;2023-10-08T02:51:16;4.30;;;0.83;;
76123;SDS011;65173;48.066;20.976;2023-10-08T02:54:18;2.60;;;0.90;;
76123;SDS011;65173;48.066;20.976;2023-10-08T02:57:25;4.70;;;1.23;;
76123;SDS011;65173;48.066;20.976;2023-10-08T03:00:31;6.77;;;1.17;;
76123;SDS011;65173;48.066;20.976;2023-10-08T03:03:36;2.83;;;0.77;;
76123;SDS011;65173;48.066;20.976;2023-10-08T03:06:39;1.83;;;1.15;;
76123;SDS011;65173;48.066;20.976;2023-10-08T03:09:41;3.08;;;1.05;;
76123;SDS011;65173;48.066;20.976;2023-10-08T03:12:45;2.53;;;1.00;;
76123;SDS011;65173;48.066;20.976;2023-10-08T03:15:51;1.85;;;1.30;;
76123;SDS011;65173;48.066;20.976;2023-10-08T03:19:03;3.22;;;1.20;;
76123;SDS011;65173;48.066;20.976;2023-10-08T03:22:08;4.97;;;1.27;;
76123;SDS011;65173;48.066;20.976;2023-10-08T03:25:13;3.05;;;1.33;;
76123;SDS011;65173;48.066;20.976;2023-10-08T03:28:19;4.40;;;1.00;;
76123;SDS011;65173;48.066;20.976;2023-10-08T03:31:21;1.80;;;0.80;;
76123;SDS011;65173;48.066;20.976;2023-10-08T03:34:33;3.17;;;1.13;;
76123;SDS011;65173;48.066;20.976;2023-10-08T03:37:36;1.63;;;0.88;;
76123;SDS011;65173;48.066;20.976;2023-10-08T03:40:52;4.40;;;0.65;;
76123;SDS011;65173;48.066;20.976;2023-10-08T03:43:59;1.17;;;0.57;;
76123;SDS011;65173;48.066;20.976;2023-10-08T03:47:07;4.80;;;0.65;;
76123;SDS011;65173;48.066;20.976;2023-10-08T03:50:13;3.50;;;1.13;;
76123;SDS011;65173;48.066;20.976;2023-10-08T03:53:20;1.90;;;0.73;;
76123;SDS011;65173;48.066;20.976;2023-10-08T03:56:25;2.28;;;0.82;;
76123;SDS011;65173;48.066;20.976;2023-10-08T03:59:32;1.90;;;0.70;;
76123;SDS011;65173;48.066;20.976;2023-10-08T04:02:36;4.20;;;1.17;;
76123;SDS011;65173;48.066;20.976;2023-10-08T04:05:49;4.95;;;1.02;;
76123;SDS011;65173;48.066;20.976;2023-10-08T04:09:17;1.67;;;0.70;;
76123;SDS011;65173;48.066;20.976;2023-10-08T04:12:26;4.90;;;1.30;;
76123;SDS011;65173;48.066;20.976;2023-10-08T04:15:29;2.92;;;0.82;;
76123;SDS011;65173;48.066;20.976;2023-10-08T04:18:31;3.05;;;1.00;;
76123;SDS011;65173;48.066;20.976;2023-10-08T04:21:40;2.50;;;1.00;;
76123;SDS011;65173;48.066;20.976;2023-10-08T04:24:45;4.80;;;0.90;;
76123;SDS011;65173;48.066;20.976;2023-10-08T04:27:47;2.10;;;1.02;;
76123;SDS011;65173;48.066;20.976;2023-10-08T04:30:52;3.00;;;0.82;;
76123;SDS011;65173;48.066;20.976;2023-10-08T04:33:55;5.73;;;1.33;;
76123;SDS011;65173;48.066;20.976;2023-10-08T04:37:03;2.17;;;0.98;;
76123;SDS011;65173;48.066;20.976;2023-10-08T04:40:14;6.00;;;0.85;;
76123;SDS011;65173;48.066;20.976;2023-10-08T04:43:19;5.68;;;0.90;;
76123;SDS011;65173;48.066;20.976;2023-10-08T04:46:33;4.70;;;1.05;;
76123;SDS011;65173;48.066;20.976;2023-10-08T04:49:41;3.60;;;0.77;;
76123;SDS011;65173;48.066;20.976;2023-10-08T04:52:47;1.42;;;0.52;;
76123;SDS011;65173;48.066;20.976;2023-10-08T04:56:01;2.33;;;0.67;;
76123;SDS011;65173;48.066;20.976;2023-10-08T04:59:08;1.98;;;0.98;;
76123;SDS011;65173;48.066;20.976;2023-10-08T05:02:13;3.17;;;0.80;;
76123;SDS011;65173;48.066;20.976;2023-10-08T05:05:22;2.80;;;1.00;;
76123;SDS011;65173;48.066;20.976;2023-10-08T05:08:24;0.95;;;0.70;;
76123;SDS011;65173;48.066;20.976;2023-10-08T05:11:34;6.30;;;1.35;;
76123;SDS011;65173;48.066;20.976;2023-10-08T05:15:08;3.17;;;1.10;;
76123;SDS011;65173;48.066;20.976;2023-10-08T05:18:24;3.47;;;1.05;;
76123;SDS011;65173;48.066;20.976;2023-10-08T05:21:40;2.45;;;1.02;;
76123;SDS011;65173;48.066;20.976;2023-10-08T05:24:54;9.02;;;1.27;;
76123;SDS011;65173;48.066;20.976;2023-10-08T05:28:13;6.73;;;1.53;;
76123;SDS011;65173;48.066;20.976;2023-10-08T05:31:29;2.25;;;0.98;;
76123;SDS011;65173;48.066;20.976;2023-10-08T05:34:43;2.78;;;0.98;;
76123;SDS011;65173;48.066;20.976;2023-10-08T05:37:58;5.77;;;1.40;;
76123;SDS011;65173;48.066;20.976;2023-10-08T05:41:15;1.80;;;0.85;;
76123;SDS011;65173;48.066;20.976;2023-10-08T05:44:31;3.05;;;1.02;;
76123;SDS011;65173;48.066;20.976;2023-10-08T05:47:42;3.55;;;1.00;;
76123;SDS011;65173;48.066;20.976;2023-10-08T05:51:08;4.50;;;0.73;;
76123;SDS011;65173;48.066;20.976;2023-10-08T05:54:26;4.20;;;1.17;;
76123;SDS011;65173;48.066;20.976;2023-10-08T05:57:31;2.55;;;1.05;;
76123;SDS011;65173;48.066;20.976;2023-10-08T06:00:48;3.17;;;1.30;;
76123;SDS011;65173;48.066;20.976;2023-10-08T06:03:53;7.32;;;1.85;;
76123;SDS011;65173;48.066;20.976;2023-10-08T06:07:03;4.50;;;1.85;;
76123;SDS011;65173;48.066;20.976;2023-10-08T06:10:19;4.17;;;1.60;;
76123;SDS011;65173;48.066;20.976;2023-10-08T06:13:35;3.20;;;0.90;;
76123;SDS011;65173;48.066;20.976;2023-10-08T06:16:57;2.17;;;1.17;;
76123;SDS011;65173;48.066;20.976;2023-10-08T06:20:18;4.40;;;1.20;;
76123;SDS011;65173;48.066;20.976;2023-10-08T06:23:27;3.55;;;1.17;;
76123;SDS011;65173;48.066;20.976;2023-10-08T06:26:40;6.43;;;1.60;;
76123;SDS011;65173;48.066;20.976;2023-10-08T06:29:50;3.75;;;1.52;;
76123;SDS011;65173;48.066;20.976;2023-10-08T06:32:52;6.47;;;1.30;;
76123;SDS011;65173;48.066;20.976;2023-10-08T06:35:56;2.13;;;0.88;;
76123;SDS011;65173;48.066;20.976;2023-10-08T06:39:07;4.63;;;1.17;;
76123;SDS011;65173;48.066;20.976;2023-10-08T06:42:14;0.70;;;0.70;;
76123;SDS011;65173;48.066;20.976;2023-10-08T06:45:18;2.33;;;1.15;;
76123;SDS011;65173;48.066;20.976;2023-10-08T06:48:21;2.20;;;0.85;;
76123;SDS011;65173;48.066;20.976;2023-10-08T06:51:27;2.50;;;0.93;;
76123;SDS011;65173;48.066;20.976;2023-10-08T06:54:32;6.05;;;1.40;;
76123;SDS011;65173;48.066;20.976;2023-10-08T06:57:37;3.72;;;1.10;;
76123;SDS011;65173;48.066;20.976;2023-10-08T07:00:40;3.05;;;1.15;;
76123;SDS011;65173;48.066;20.976;2023-10-08T07:03:49;1.77;;;1.10;;
76123;SDS011;65173;48.066;20.976;2023-10-08T07:06:59;1.88;;;0.82;;
76123;SDS011;65173;48.066;20.976;2023-10-08T07:10:03;2.15;;;0.80;;
76123;SDS011;65173;48.066;20.976;2023-10-08T07:13:06;4.70;;;1.03;;
76123;SDS011;65173;48.066;20.976;2023-10-08T07:16:12;3.50;;;1.23;;
76123;SDS011;65173;48.066;20.976;2023-10-08T07:19:19;2.30;;;1.08;;
76123;SDS011;65173;48.066;20.976;2023-10-08T07:22:22;3.53;;;1.33;;
76123;SDS011;65173;48.066;20.976;2023-10-08T07:25:25;3.60;;;1.40;;
76123;SDS011;65173;48.066;20.976;2023-10-08T07:28:42;2.53;;;1.02;;
76123;SDS011;65173;48.066;20.976;2023-10-08T07:31:45;5.85;;;0.77;;
76123;SDS011;65173;48.066;20.976;2023-10-08T07:34:56;1.77;;;0.90;;
76123;SDS011;65173;48.066;20.976;2023-10-08T07:38:21;2.63;;;0.88;;
76123;SDS011;65173;48.066;20.976;2023-10-08T07:41:24;2.58;;;0.95;;
76123;SDS011;65173;48.066;20.976;2023-10-08T07:44:27;5.53;;;1.17;;
76123;SDS011;65173;48.066;20.976;2023-10-08T07:47:35;4.38;;;1.52;;
76123;SDS011;65173;48.066;20.976;2023-10-08T07:50:41;2.58;;;1.20;;
76123;SDS011;65173;48.066;20.976;2023-10-08T07:53:45;2.85;;;1.10;;
76123;SDS011;65173;48.066;20.976;2023-10-08T07:56:50;2.40;;;1.20;;
76123;SDS011;65173;48.066;20.976;2023-10-08T08:00:12;6.07;;;1.30;;
76123;SDS011;65173;48.066;20.976;2023-10-08T08:03:25;5.70;;;0.85;;
76123;SDS011;65173;48.066;20.976;2023-10-08T08:06:28;0.57;;;0.17;;
76123;SDS011;65173;48.066;20.976;2023-10-08T08:09:33;2.30;;;0.40;;
76123;SDS011;65173;48.066;20.976;2023-10-08T08:12:40;2.08;;;0.13;;
76123;SDS011;65173;48.066;20.976;2023-10-08T08:15:42;0.00;;;0.00;;
76123;SDS011;65173;48.066;20.976;2023-10-08T08:18:54;0.30;;;0.00;;
76123;SDS011;65173;48.066;20.976;2023-10-08T08:22:01;2.60;;;0.20;;
76123;SDS011;65173;48.066;20.976;2023-10-08T08:25:05;3.33;;;0.30;;
76123;SDS011;65173;48.066;20.976;2023-10-08T08:28:18;0.17;;;0.10;;
76123;SDS011;65173;48.066;20.976;2023-10-08T08:31:25;1.75;;;0.22;;
76123;SDS011;65173;48.066;20.976;2023-10-08T08:34:28;4.57;;;0.25;;
76123;SDS011;65173;48.066;20.976;2023-10-08T08:37:31;1.80;;;0.10;;
76123;SDS011;65173;48.066;20.976;2023-10-08T08:40:34;0.20;;;0.05;;
76123;SDS011;65173;48.066;20.976;2023-10-08T08:43:36;1.90;;;0.10;;
76123;SDS011;65173;48.066;20.976;2023-10-08T08:46:39;0.00;;;0.00;;
76123;SDS011;65173;48.066;20.976;2023-10-08T08:49:42;3.00;;;0.20;;
76123;SDS011;65173;48.066;20.976;2023-10-08T08:52:45;0.90;;;0.10;;
76123;SDS011;65173;48.066;20.976;2023-10-08T08:55:49;0.13;;;0.10;;
76123;SDS011;65173;48.066;20.976;2023-10-08T08:58:54;0.00;;;0.00;;
76123;SDS011;65173;48.066;20.976;2023-10-08T09:01:58;0.20;;;0.13;;
76123;SDS011;65173;48.066;20.976;2023-10-08T09:05:06;0.25;;;0.10;;
76123;SDS011;65173;48.066;20.976;2023-10-08T09:08:32;0.13;;;0.13;;
76123;SDS011;65173;48.066;20.976;2023-10-08T09:11:37;0.80;;;0.30;;
76123;SDS011;65173;48.066;20.976;2023-10-08T09:14:43;0.40;;;0.10;;
76123;SDS011;65173;48.066;20.976;2023-10-08T09:17:47;0.10;;;0.10;;
76123;SDS011;65173;48.066;20.976;2023-10-08T09:20:49;0.00;;;0.00;;
76123;SDS011;65173;48.066;20.976;2023-10-08T09:23:53;0.28;;;0.10;;
76123;SDS011;65173;48.066;20.976;2023-10-08T09:26:57;0.10;;;0.03;;
76123;SDS011;65173;48.066;20.976;2023-10-08T09:30:03;0.00;;;0.00;;
76123;SDS011;65173;48.066;20.976;2023-10-08T09:33:11;0.10;;;0.05;;
76123;SDS011;65173;48.066;20.976;2023-10-08T09:36:14;0.10;;;0.00;;
76123;SDS011;65173;48.066;20.976;2023-10-08T09:39:20;0.00;;;0.00;;
76123;SDS011;65173;48.066;20.976;2023-10-08T09:42:27;0.00;;;0.00;;
76123;SDS011;65173;48.066;20.976;2023-10-08T09:45:32;0.43;;;0.00;;
76123;SDS011;65173;48.066;20.976;2023-10-08T09:48:37;0.10;;;0.10;;
76123;SDS011;65173;48.066;20.976;2023-10-08T09:51:43;5.05;;;0.10;;
76123;SDS011;65173;48.066;20.976;2023-10-08T09:54:49;0.00;;;0.00;;
76123;SDS011;65173;48.066;20.976;2023-10-08T09:57:58;0.10;;;0.10;;
76123;SDS011;65173;48.066;20.976;2023-10-08T10:01:01;0.10;;;0.10;;
76123;SDS011;65173;48.066;20.976;2023-10-08T10:04:09;0.38;;;0.10;;
76123;SDS011;65173;48.066;20.976;2023-10-08T10:07:14;0.28;;;0.10;;
76123;SDS011;65173;48.066;20.976;2023-10-08T10:10:28;0.00;;;0.00;;
76123;SDS011;65173;48.066;20.976;2023-10-08T10:13:38;0.50;;;0.05;;
76123;SDS011;65173;48.066;20.976;2023-10-08T10:20:12;0.20;;;0.03;;
76123;SDS011;65173;48.066;20.976;2023-10-08T10:26:40;0.30;;;0.20;;
76123;SDS011;65173;48.066;20.976;2023-10-08T10:29:47;0.17;;;0.17;;
76123;SDS011;65173;48.066;20.976;2023-10-08T10:32:53;0.30;;;0.00;;
76123;SDS011;65173;48.066;20.976;2023-10-08T10:35:57;0.30;;;0.10;;
76123;SDS011;65173;48.066;20.976;2023-10-08T10:39:02;0.30;;;0.10;;
76123;SDS011;65173;48.066;20.976;2023-10-08T10:42:28;0.67;;;0.13;;
76123;SDS011;65173;48.066;20.976;2023-10-08T10:45:30;0.00;;;0.00;;
76123;SDS011;65173;48.066;20.976;2023-10-08T10:48:39;0.20;;;0.20;;
76123;SDS011;65173;48.066;20.976;2023-10-08T10:51:41;0.20;;;0.20;;
76123;SDS011;65173;48.066;20.976;2023-10-08T10:54:44;0.10;;;0.10;;
76123;SDS011;65173;48.066;20.976;2023-10-08T10:58:00;0.10;;;0.03;;
76123;SDS011;65173;48.066;20.976;2023-10-08T11:01:28;2.28;;;0.65;;
76123;SDS011;65173;48.066;20.976;2023-10-08T11:04:32;0.80;;;0.30;;
76123;SDS011;65173;48.066;20.976;2023-10-08T11:07:36;0.60;;;0.35;;
76123;SDS011;65173;48.066;20.976;2023-10-08T11:10:42;0.50;;;0.10;;
76123;SDS011;65173;48.066;20.976;2023-10-08T11:13:56;1.83;;;0.27;;
76123;SDS011;65173;48.066;20.976;2023-10-08T11:17:09;0.98;;;0.20;;
76123;SDS011;65173;48.066;20.976;2023-10-08T11:20:24;0.55;;;0.30;;
76123;SDS011;65173;48.066;20.976;2023-10-08T11:23:30;0.20;;;0.20;;
76123;SDS011;65173;48.066;20.976;2023-10-08T11:26:36;1.55;;;0.10;;
76123;SDS011;65173;48.066;20.976;2023-10-08T11:29:51;1.02;;;0.38;;
76123;SDS011;65173;48.066;20.976;2023-10-08T11:33:00;0.30;;;0.30;;
76123;SDS011;65173;48.066;20.976;2023-10-08T11:36:03;0.73;;;0.20;;
76123;SDS011;65173;48.066;20.976;2023-10-08T11:39:12;0.40;;;0.40;;
76123;SDS011;65173;48.066;20.976;2023-10-08T11:42:24;0.93;;;0.30;;
76123;SDS011;65173;48.066;20.976;2023-10-08T11:45:30;0.50;;;0.20;;
76123;SDS011;65173;48.066;20.976;2023-10-08T11:48:41;0.75;;;0.15;;
76123;SDS011;65173;48.066;20.976;2023-10-08T11:51:49;0.20;;;0.20;;
76123;SDS011;65173;48.066;20.976;2023-10-08T11:54:54;0.30;;;0.17;;
76123;SDS011;65173;48.066;20.976;2023-10-08T11:57:57;0.40;;;0.20;;
76123;SDS011;65173;48.066;20.976;2023-10-08T12:00:59;0.43;;;0.40;;
76123;SDS011;65173;48.066;20.976;2023-10-08T12:04:06;0.40;;;0.20;;
76123;SDS011;65173;48.066;20.976;2023-10-08T12:07:15;0.40;;;0.40;;
76123;SDS011;65173;48.066;20.976;2023-10-08T12:10:20;0.93;;;0.50;;
76123;SDS011;65173;48.066;20.976;2023-10-08T12:13:24;0.10;;;0.10;;
76123;SDS011;65173;48.066;20.976;2023-10-08T12:16:31;0.30;;;0.30;;
76123;SDS011;65173;48.066;20.976;2023-10-08T12:19:37;0.65;;;0.30;;
76123;SDS011;65173;48.066;20.976;2023-10-08T12:22:45;0.52;;;0.15;;
76123;SDS011;65173;48.066;20.976;2023-10-08T12:25:47;0.70;;;0.57;;
76123;SDS011;65173;48.066;20.976;2023-10-08T12:28:54;0.98;;;0.55;;
76123;SDS011;65173;48.066;20.976;2023-10-08T12:31:57;1.65;;;0.57;;
76123;SDS011;65173;48.066;20.976;2023-10-08T12:35:02;0.77;;;0.32;;
76123;SDS011;65173;48.066;20.976;2023-10-08T12:38:04;0.68;;;0.68;;
76123;SDS011;65173;48.066;20.976;2023-10-08T12:41:08;0.73;;;0.70;;
76123;SDS011;65173;48.066;20.976;2023-10-08T12:44:14;1.15;;;0.40;;
76123;SDS011;65173;48.066;20.976;2023-10-08T12:47:18;1.13;;;0.30;;
76123;SDS011;65173;48.066;20.976;2023-10-08T12:50:20;0.90;;;0.40;;
76123;SDS011;65173;48.066;20.976;2023-10-08T12:53:32;0.82;;;0.30;;
76123;SDS011;65173;48.066;20.976;2023-10-08T12:56:39;1.03;;;0.60;;
76123;SDS011;65173;48.066;20.976;2023-10-08T12:59:47;1.15;;;0.70;;
76123;SDS011;65173;48.066;20.976;2023-10-08T13:02:54;5.10;;;0.82;;
76123;SDS011;65173;48.066;20.976;2023-10-08T13:05:56;0.85;;;0.50;;
76123;SDS011;65173;48.066;20.976;2023-10-08T13:09:06;0.77;;;0.63;;
76123;SDS011;65173;48.066;20.976;2023-10-08T13:12:15;0.60;;;0.60;;
76123;SDS011;65173;48.066;20.976;2023-10-08T13:15:17;0.95;;;0.63;;
76123;SDS011;65173;48.066;20.976;2023-10-08T13:18:20;0.67;;;0.50;;
76123;SDS011;65173;48.066;20.976;2023-10-08T13:21:23;0.95;;;0.57;;
76123;SDS011;65173;48.066;20.976;2023-10-08T13:24:27;1.38;;;0.93;;
76123;SDS011;65173;48.066;20.976;2023-10-08T13:27:31;1.93;;;0.60;;
76123;SDS011;65173;48.066;20.976;2023-10-08T13:30:33;2.67;;;0.57;;
76123;SDS011;65173;48.066;20.976;2023-10-08T13:33:40;0.95;;;0.52;;
76123;SDS011;65173;48.066;20.976;2023-10-08T13:36:51;0.50;;;0.50;;
76123;SDS011;65173;48.066;20.976;2023-10-08T13:39:54;1.30;;;0.90;;
76123;SDS011;65173;48.066;20.976;2023-10-08T13:42:56;0.40;;;0.40;;
76123;SDS011;65173;48.066;20.976;2023-10-08T13:46:00;0.57;;;0.38;;
76123;SDS011;65173;48.066;20.976;2023-10-08T13:49:06;1.27;;;0.53;;
76123;SDS011;65173;48.066;20.976;2023-10-08T13:52:10;1.60;;;0.82;;
76123;SDS011;65173;48.066;20.976;2023-10-08T13:55:13;0.93;;;0.57;;
76123;SDS011;65173;48.066;20.976;2023-10-08T13:58:16;0.97;;;0.83;;
76123;SDS011;65173;48.066;20.976;2023-10-08T14:01:18;0.65;;;0.65;;
76123;SDS011;65173;48.066;20.976;2023-10-08T14:04:21;1.05;;;0.82;;
76123;SDS011;65173;48.066;20.976;2023-10-08T14:07:29;1.55;;;0.85;;
76123;SDS011;65173;48.066;20.976;2023-10-08T14:10:33;1.38;;;0.93;;
76123;SDS011;65173;48.066;20.976;2023-10-08T14:13:38;1.52;;;0.98;;
76123;SDS011;65173;48.066;20.976;2023-10-08T14:16:44;1.02;;;0.77;;
76123;SDS011;65173;48.066;20.976;2023-10-08T14:19:53;1.53;;;0.80;;
76123;SDS011;65173;48.066;20.976;2023-10-08T14:23:02;1.65;;;0.60;;
76123;SDS011;65173;48.066;20.976;2023-10-08T14:26:07;1.95;;;0.75;;
76123;SDS011;65173;48.066;20.976;2023-10-08T14:29:10;7.13;;;3.17;;
76123;SDS011;65173;48.066;20.976;2023-10-08T14:32:16;1.90;;;1.20;;
76123;SDS011;65173;48.066;20.976;2023-10-08T14:35:19;2.47;;;1.48;;
76123;SDS011;65173;48.066;20.976;2023-10-08T14:38:40;2.95;;;1.73;;
76123;SDS011;65173;48.066;20.976;2023-10-08T14:42:01;6.00;;;1.35;;
76123;SDS011;65173;48.066;20.976;2023-10-08T14:45:23;1.48;;;0.90;;
76123;SDS011;65173;48.066;20.976;2023-10-08T14:48:33;4.10;;;0.80;;
76123;SDS011;65173;48.066;20.976;2023-10-08T14:51:38;3.23;;;1.43;;
76123;SDS011;65173;48.066;20.976;2023-10-08T14:54:42;6.32;;;2.75;;
76123;SDS011;65173;48.066;20.976;2023-10-08T14:57:45;5.57;;;1.40;;
76123;SDS011;65173;48.066;20.976;2023-10-08T15:00:48;2.93;;;1.73;;
76123;SDS011;65173;48.066;20.976;2023-10-08T15:03:51;1.38;;;1.02;;
76123;SDS011;65173;48.066;20.976;2023-10-08T15:06:55;2.13;;;0.85;;
76123;SDS011;65173;48.066;20.976;2023-10-08T15:10:01;1.98;;;0.75;;
76123;SDS011;65173;48.066;20.976;2023-10-08T15:13:04;2.30;;;1.08;;
76123;SDS011;65173;48.066;20.976;2023-10-08T15:16:08;2.05;;;1.02;;
76123;SDS011;65173;48.066;20.976;2023-10-08T15:19:11;2.08;;;0.95;;
76123;SDS011;65173;48.066;20.976;2023-10-08T15:22:14;2.37;;;0.90;;
76123;SDS011;65173;48.066;20.976;2023-10-08T15:25:17;3.13;;;0.60;;
76123;SDS011;65173;48.066;20.976;2023-10-08T15:28:20;1.38;;;0.60;;
76123;SDS011;65173;48.066;20.976;2023-10-08T15:31:23;1.40;;;0.73;;
76123;SDS011;65173;48.066;20.976;2023-10-08T15:34:26;1.50;;;0.60;;
76123;SDS011;65173;48.066;20.976;2023-10-08T15:37:38;1.27;;;0.60;;
76123;SDS011;65173;48.066;20.976;2023-10-08T15:40:42;3.95;;;0.80;;
76123;SDS011;65173;48.066;20.976;2023-10-08T15:43:50;1.75;;;0.50;;
76123;SDS011;65173;48.066;20.976;2023-10-08T15:46:54;1.35;;;0.47;;
76123;SDS011;65173;48.066;20.976;2023-10-08T15:49:56;1.67;;;0.63;;
76123;SDS011;65173;48.066;20.976;2023-10-08T15:53:02;2.47;;;0.63;;
76123;SDS011;65173;48.066;20.976;2023-10-08T15:56:05;1.15;;;0.57;;
76123;SDS011;65173;48.066;20.976;2023-10-08T15:59:08;0.95;;;0.88;;
76123;SDS011;65173;48.066;20.976;2023-10-08T16:02:10;2.23;;;0.73;;
76123;SDS011;65173;48.066;20.976;2023-10-08T16:05:14;3.45;;;1.00;;
76123;SDS011;65173;48.066;20.976;2023-10-08T16:08:19;2.17;;;0.60;;
76123;SDS011;65173;48.066;20.976;2023-10-08T16:11:22;2.78;;;0.50;;
76123;SDS011;65173;48.066;20.976;2023-10-08T16:14:24;1.88;;;0.80;;
76123;SDS011;65173;48.066;20.976;2023-10-08T16:17:27;1.95;;;0.88;;
76123;SDS011;65173;48.066;20.976;2023-10-08T16:20:33;1.73;;;0.75;;
76123;SDS011;65173;48.066;20.976;2023-10-08T16:23:38;1.67;;;0.70;;
76123;SDS011;65173;48.066;20.976;2023-10-08T16:26:41;1.63;;;0.68;;
76123;SDS011;65173;48.066;20.976;2023-10-08T16:29:44;3.75;;;1.10;;
76123;SDS011;65173;48.066;20.976;2023-10-08T16:32:46;2.90;;;0.70;;
76123;SDS011;65173;48.066;20.976;2023-10-08T16:35:50;1.85;;;0.60;;
76123;SDS011;65173;48.066;20.976;2023-10-08T16:38:53;1.00;;;0.43;;
76123;SDS011;65173;48.066;20.976;2023-10-08T16:41:56;5.18;;;0.75;;
76123;SDS011;65173;48.066;20.976;2023-10-08T16:44:59;1.52;;;0.55;;
76123;SDS011;65173;48.066;20.976;2023-10-08T16:48:02;1.05;;;0.55;;
76123;SDS011;65173;48.066;20.976;2023-10-08T16:51:06;1.73;;;0.70;;
76123;SDS011;65173;48.066;20.976;2023-10-08T16:54:08;2.77;;;1.07;;
76123;SDS011;65173;48.066;20.976;2023-10-08T16:57:17;5.00;;;1.00;;
76123;SDS011;65173;48.066;20.976;2023-10-08T17:00:20;2.78;;;0.50;;
76123;SDS011;65173;48.066;20.976;2023-10-08T17:03:23;1.30;;;0.77;;
76123;SDS011;65173;48.066;20.976;2023-10-08T17:06:26;0.80;;;0.35;;
76123;SDS011;65173;48.066;20.976;2023-10-08T17:09:29;0.50;;;0.32;;
76123;SDS011;65173;48.066;20.976;2023-10-08T17:12:32;1.23;;;0.65;;
76123;SDS011;65173;48.066;20.976;2023-10-08T17:15:39;1.13;;;0.40;;
76123;SDS011;65173;48.066;20.976;2023-10-08T17:18:42;1.40;;;0.55;;
76123;SDS011;65173;48.066;20.976;2023-10-08T17:21:45;3.42;;;0.50;;
76123;SDS011;65173;48.066;20.976;2023-10-08T17:24:51;5.30;;;0.30;;
76123;SDS011;65173;48.066;20.976;2023-10-08T17:27:54;1.25;;;0.73;;
76123;SDS011;65173;48.066;20.976;2023-10-08T17:30:58;1.58;;;1.10;;
76123;SDS011;65173;48.066;20.976;2023-10-08T17:34:01;1.20;;;0.63;;
76123;SDS011;65173;48.066;20.976;2023-10-08T17:37:05;1.30;;;0.60;;
76123;SDS011;65173;48.066;20.976;2023-10-08T17:40:08;1.52;;;0.65;;
76123;SDS011;65173;48.066;20.976;2023-10-08T17:43:14;0.82;;;0.47;;
76123;SDS011;65173;48.066;20.976;2023-10-08T17:46:16;0.60;;;0.32;;
76123;SDS011;65173;48.066;20.976;2023-10-08T17:49:19;0.93;;;0.30;;
76123;SDS011;65173;48.066;20.976;2023-10-08T17:52:22;1.25;;;0.73;;
76123;SDS011;65173;48.066;20.976;2023-10-08T17:55:26;5.17;;;1.57;;
76123;SDS011;65173;48.066;20.976;2023-10-08T17:58:29;3.85;;;2.28;;
76123;SDS011;65173;48.066;20.976;2023-10-08T18:01:33;6.03;;;1.98;;
76123;SDS011;65173;48.066;20.976;2023-10-08T18:04:42;4.73;;;1.93;;
76123;SDS011;65173;48.066;20.976;2023-10-08T18:07:47;19.08;;;5.72;;
76123;SDS011;65173;48.066;20.976;2023-10-08T18:10:52;6.72;;;2.80;;
76123;SDS011;65173;48.066;20.976;2023-10-08T18:13:55;6.28;;;2.45;;
76123;SDS011;65173;48.066;20.976;2023-10-08T18:16:58;5.65;;;2.00;;
76123;SDS011;65173;48.066;20.976;2023-10-08T18:20:01;5.03;;;1.98;;
76123;SDS011;65173;48.066;20.976;2023-10-08T18:23:04;3.67;;;1.42;;
76123;SDS011;65173;48.066;20.976;2023-10-08T18:26:10;4.77;;;0.87;;
76123;SDS011;65173;48.066;20.976;2023-10-08T18:29:16;1.33;;;0.60;;
76123;SDS011;65173;48.066;20.976;2023-10-08T18:32:19;0.95;;;0.47;;